Terminal Aerodrome Forecast
Issued by NWS North Platte, NE

Home | Current Version | Previous Version | Text Only | Print | Product List | Glossary Off
Versions: 1 2 3 4 5 6 7 8 9 10 11 12 13 14 15 16 17

759
FTUS43 KLBF 210959 AAB
TAFVTN
TAF AMD
KVTN 210959Z 2110/2206 16014KT P6SM OVC015
     FM211500 15017G22KT P6SM OVC012
     FM211900 15024G31KT P6SM OVC015
     FM220200 15016G24KT P6SM OVC012=

USA.gov is the U.S. government's official web portal to all federal, state and local government web resources and services.